sensor_id;sensor_type;location;lat;lon;timestamp;P1;durP1;ratioP1;P2;durP2;ratioP2
33190;SDS011;19554;42.652;23.364;2022-12-28T00:00:00;12.93;;;8.65;;
33190;SDS011;19554;42.652;23.364;2022-12-28T00:02:26;12.73;;;8.40;;
33190;SDS011;19554;42.652;23.364;2022-12-28T00:04:51;11.63;;;7.90;;
33190;SDS011;19554;42.652;23.364;2022-12-28T00:07:17;13.18;;;8.88;;
33190;SDS011;19554;42.652;23.364;2022-12-28T00:09:42;12.60;;;8.40;;
33190;SDS011;19554;42.652;23.364;2022-12-28T00:12:08;11.60;;;8.77;;
33190;SDS011;19554;42.652;23.364;2022-12-28T00:14:33;12.75;;;8.05;;
33190;SDS011;19554;42.652;23.364;2022-12-28T00:16:59;13.43;;;9.07;;
33190;SDS011;19554;42.652;23.364;2022-12-28T00:19:24;13.38;;;8.43;;
33190;SDS011;19554;42.652;23.364;2022-12-28T00:21:51;14.07;;;9.15;;
33190;SDS011;19554;42.652;23.364;2022-12-28T00:24:19;13.85;;;8.57;;
33190;SDS011;19554;42.652;23.364;2022-12-28T00:26:46;13.80;;;8.18;;
33190;SDS011;19554;42.652;23.364;2022-12-28T00:29:12;14.18;;;8.50;;
33190;SDS011;19554;42.652;23.364;2022-12-28T00:31:38;11.80;;;8.50;;
33190;SDS011;19554;42.652;23.364;2022-12-28T00:34:03;10.70;;;7.93;;
33190;SDS011;19554;42.652;23.364;2022-12-28T00:36:29;12.75;;;8.93;;
33190;SDS011;19554;42.652;23.364;2022-12-28T00:38:56;11.40;;;8.40;;
33190;SDS011;19554;42.652;23.364;2022-12-28T00:41:21;13.00;;;8.40;;
33190;SDS011;19554;42.652;23.364;2022-12-28T00:43:47;11.88;;;8.25;;
33190;SDS011;19554;42.652;23.364;2022-12-28T00:46:12;13.00;;;8.35;;
33190;SDS011;19554;42.652;23.364;2022-12-28T00:48:38;13.75;;;8.77;;
33190;SDS011;19554;42.652;23.364;2022-12-28T00:51:05;10.30;;;7.57;;
33190;SDS011;19554;42.652;23.364;2022-12-28T00:53:32;15.63;;;8.60;;
33190;SDS011;19554;42.652;23.364;2022-12-28T00:56:04;13.27;;;8.88;;
33190;SDS011;19554;42.652;23.364;2022-12-28T00:58:35;13.95;;;9.07;;
33190;SDS011;19554;42.652;23.364;2022-12-28T01:01:01;14.30;;;8.93;;
33190;SDS011;19554;42.652;23.364;2022-12-28T01:03:27;12.18;;;9.55;;
33190;SDS011;19554;42.652;23.364;2022-12-28T01:05:53;13.32;;;9.43;;
33190;SDS011;19554;42.652;23.364;2022-12-28T01:08:18;13.10;;;9.50;;
33190;SDS011;19554;42.652;23.364;2022-12-28T01:10:43;14.70;;;9.68;;
33190;SDS011;19554;42.652;23.364;2022-12-28T01:13:09;13.75;;;10.32;;
33190;SDS011;19554;42.652;23.364;2022-12-28T01:15:34;13.98;;;10.13;;
33190;SDS011;19554;42.652;23.364;2022-12-28T01:18:00;17.10;;;10.35;;
33190;SDS011;19554;42.652;23.364;2022-12-28T01:20:25;18.23;;;10.90;;
33190;SDS011;19554;42.652;23.364;2022-12-28T01:22:51;17.35;;;11.80;;
33190;SDS011;19554;42.652;23.364;2022-12-28T01:25:16;15.80;;;11.55;;
33190;SDS011;19554;42.652;23.364;2022-12-28T01:27:41;17.92;;;11.50;;
33190;SDS011;19554;42.652;23.364;2022-12-28T01:30:07;18.60;;;12.32;;
33190;SDS011;19554;42.652;23.364;2022-12-28T01:32:33;16.13;;;11.98;;
33190;SDS011;19554;42.652;23.364;2022-12-28T01:34:58;18.55;;;11.93;;
33190;SDS011;19554;42.652;23.364;2022-12-28T01:37:24;17.67;;;11.90;;
33190;SDS011;19554;42.652;23.364;2022-12-28T01:39:49;16.80;;;12.35;;
33190;SDS011;19554;42.652;23.364;2022-12-28T01:42:15;17.25;;;12.32;;
33190;SDS011;19554;42.652;23.364;2022-12-28T01:44:46;18.05;;;11.52;;
33190;SDS011;19554;42.652;23.364;2022-12-28T01:47:22;19.95;;;13.20;;
33190;SDS011;19554;42.652;23.364;2022-12-28T01:49:57;22.90;;;13.67;;
33190;SDS011;19554;42.652;23.364;2022-12-28T01:55:07;20.17;;;13.23;;
33190;SDS011;19554;42.652;23.364;2022-12-28T01:57:53;22.00;;;14.23;;
33190;SDS011;19554;42.652;23.364;2022-12-28T02:00:22;19.60;;;13.07;;
33190;SDS011;19554;42.652;23.364;2022-12-28T02:02:54;19.92;;;13.65;;
33190;SDS011;19554;42.652;23.364;2022-12-28T02:05:31;22.83;;;14.55;;
33190;SDS011;19554;42.652;23.364;2022-12-28T02:10:47;21.70;;;14.27;;
33190;SDS011;19554;42.652;23.364;2022-12-28T02:13:15;20.65;;;14.30;;
33190;SDS011;19554;42.652;23.364;2022-12-28T02:15:43;21.40;;;14.52;;
33190;SDS011;19554;42.652;23.364;2022-12-28T02:18:09;20.17;;;13.70;;
33190;SDS011;19554;42.652;23.364;2022-12-28T02:23:34;22.38;;;14.88;;
33190;SDS011;19554;42.652;23.364;2022-12-28T02:26:42;23.48;;;15.50;;
33190;SDS011;19554;42.652;23.364;2022-12-28T02:37:14;19.70;;;14.23;;
33190;SDS011;19554;42.652;23.364;2022-12-28T02:39:46;24.20;;;14.50;;
33190;SDS011;19554;42.652;23.364;2022-12-28T02:42:16;24.30;;;15.52;;
33190;SDS011;19554;42.652;23.364;2022-12-28T02:44:42;22.88;;;14.32;;
33190;SDS011;19554;42.652;23.364;2022-12-28T02:47:26;25.00;;;15.88;;
33190;SDS011;19554;42.652;23.364;2022-12-28T02:50:10;23.65;;;14.30;;
33190;SDS011;19554;42.652;23.364;2022-12-28T02:55:42;20.92;;;14.15;;
33190;SDS011;19554;42.652;23.364;2022-12-28T03:04:06;18.38;;;12.50;;
33190;SDS011;19554;42.652;23.364;2022-12-28T03:09:38;17.15;;;11.90;;
33190;SDS011;19554;42.652;23.364;2022-12-28T03:12:41;19.27;;;13.13;;
33190;SDS011;19554;42.652;23.364;2022-12-28T03:15:23;17.45;;;11.93;;
33190;SDS011;19554;42.652;23.364;2022-12-28T03:18:07;19.45;;;12.90;;
33190;SDS011;19554;42.652;23.364;2022-12-28T03:20:53;18.40;;;12.68;;
33190;SDS011;19554;42.652;23.364;2022-12-28T03:23:39;18.70;;;12.05;;
33190;SDS011;19554;42.652;23.364;2022-12-28T03:26:26;20.13;;;13.48;;
33190;SDS011;19554;42.652;23.364;2022-12-28T03:29:12;17.95;;;12.32;;
33190;SDS011;19554;42.652;23.364;2022-12-28T03:32:00;18.20;;;12.43;;
33190;SDS011;19554;42.652;23.364;2022-12-28T03:34:26;19.65;;;13.45;;
33190;SDS011;19554;42.652;23.364;2022-12-28T03:37:01;19.67;;;12.73;;
33190;SDS011;19554;42.652;23.364;2022-12-28T03:39:49;17.42;;;12.13;;
33190;SDS011;19554;42.652;23.364;2022-12-28T03:42:22;20.05;;;12.52;;
33190;SDS011;19554;42.652;23.364;2022-12-28T03:48:03;22.85;;;12.68;;
33190;SDS011;19554;42.652;23.364;2022-12-28T03:50:30;17.70;;;12.23;;
33190;SDS011;19554;42.652;23.364;2022-12-28T03:53:02;19.08;;;11.88;;
33190;SDS011;19554;42.652;23.364;2022-12-28T03:55:28;17.98;;;11.77;;
33190;SDS011;19554;42.652;23.364;2022-12-28T03:57:54;15.57;;;10.30;;
33190;SDS011;19554;42.652;23.364;2022-12-28T04:00:20;16.67;;;10.82;;
33190;SDS011;19554;42.652;23.364;2022-12-28T04:02:45;16.13;;;10.73;;
33190;SDS011;19554;42.652;23.364;2022-12-28T04:05:11;17.50;;;10.63;;
33190;SDS011;19554;42.652;23.364;2022-12-28T04:07:36;13.85;;;10.02;;
33190;SDS011;19554;42.652;23.364;2022-12-28T04:10:02;18.08;;;10.48;;
33190;SDS011;19554;42.652;23.364;2022-12-28T04:12:27;13.85;;;9.70;;
33190;SDS011;19554;42.652;23.364;2022-12-28T04:14:52;15.32;;;9.88;;
33190;SDS011;19554;42.652;23.364;2022-12-28T04:17:18;15.77;;;10.30;;
33190;SDS011;19554;42.652;23.364;2022-12-28T04:19:43;16.20;;;10.32;;
33190;SDS011;19554;42.652;23.364;2022-12-28T04:22:08;13.93;;;9.30;;
33190;SDS011;19554;42.652;23.364;2022-12-28T04:24:34;16.70;;;10.13;;
33190;SDS011;19554;42.652;23.364;2022-12-28T04:26:59;15.05;;;9.60;;
33190;SDS011;19554;42.652;23.364;2022-12-28T04:29:25;14.43;;;9.60;;
33190;SDS011;19554;42.652;23.364;2022-12-28T04:31:50;16.08;;;9.30;;
33190;SDS011;19554;42.652;23.364;2022-12-28T04:34:16;12.73;;;8.68;;
33190;SDS011;19554;42.652;23.364;2022-12-28T04:36:41;12.43;;;8.38;;
33190;SDS011;19554;42.652;23.364;2022-12-28T04:39:07;16.83;;;9.18;;
33190;SDS011;19554;42.652;23.364;2022-12-28T04:41:33;17.60;;;8.82;;
33190;SDS011;19554;42.652;23.364;2022-12-28T04:43:58;12.45;;;8.75;;
33190;SDS011;19554;42.652;23.364;2022-12-28T04:46:24;12.27;;;8.48;;
33190;SDS011;19554;42.652;23.364;2022-12-28T04:48:49;13.25;;;7.85;;
33190;SDS011;19554;42.652;23.364;2022-12-28T04:51:17;10.68;;;7.57;;
33190;SDS011;19554;42.652;23.364;2022-12-28T04:53:46;10.48;;;7.30;;
33190;SDS011;19554;42.652;23.364;2022-12-28T04:56:13;11.70;;;7.97;;
33190;SDS011;19554;42.652;23.364;2022-12-28T04:58:39;12.50;;;7.63;;
33190;SDS011;19554;42.652;23.364;2022-12-28T05:01:06;11.82;;;7.13;;
33190;SDS011;19554;42.652;23.364;2022-12-28T05:06:02;10.57;;;7.45;;
33190;SDS011;19554;42.652;23.364;2022-12-28T05:08:38;9.88;;;7.00;;
33190;SDS011;19554;42.652;23.364;2022-12-28T05:11:05;8.38;;;6.40;;
33190;SDS011;19554;42.652;23.364;2022-12-28T05:13:32;9.95;;;6.82;;
33190;SDS011;19554;42.652;23.364;2022-12-28T05:16:05;12.32;;;7.63;;
33190;SDS011;19554;42.652;23.364;2022-12-28T05:18:33;11.63;;;7.15;;
33190;SDS011;19554;42.652;23.364;2022-12-28T05:23:32;11.15;;;7.18;;
33190;SDS011;19554;42.652;23.364;2022-12-28T05:25:59;9.15;;;6.50;;
33190;SDS011;19554;42.652;23.364;2022-12-28T05:28:24;11.40;;;6.70;;
33190;SDS011;19554;42.652;23.364;2022-12-28T05:30:50;9.57;;;6.43;;
33190;SDS011;19554;42.652;23.364;2022-12-28T05:33:16;10.93;;;6.75;;
33190;SDS011;19554;42.652;23.364;2022-12-28T05:35:42;9.52;;;6.65;;
33190;SDS011;19554;42.652;23.364;2022-12-28T05:38:08;9.63;;;6.63;;
33190;SDS011;19554;42.652;23.364;2022-12-28T05:40:33;9.70;;;6.30;;
33190;SDS011;19554;42.652;23.364;2022-12-28T05:42:59;10.13;;;6.45;;
33190;SDS011;19554;42.652;23.364;2022-12-28T05:45:24;11.07;;;7.15;;
33190;SDS011;19554;42.652;23.364;2022-12-28T05:47:50;9.60;;;6.70;;
33190;SDS011;19554;42.652;23.364;2022-12-28T05:50:15;12.25;;;6.53;;
33190;SDS011;19554;42.652;23.364;2022-12-28T05:52:41;9.55;;;6.35;;
33190;SDS011;19554;42.652;23.364;2022-12-28T05:55:06;11.00;;;6.13;;
33190;SDS011;19554;42.652;23.364;2022-12-28T05:57:32;10.48;;;6.60;;
33190;SDS011;19554;42.652;23.364;2022-12-28T05:59:58;8.23;;;6.10;;
33190;SDS011;19554;42.652;23.364;2022-12-28T06:02:23;11.93;;;7.10;;
33190;SDS011;19554;42.652;23.364;2022-12-28T06:04:51;10.70;;;6.63;;
33190;SDS011;19554;42.652;23.364;2022-12-28T06:07:17;14.00;;;6.75;;
33190;SDS011;19554;42.652;23.364;2022-12-28T06:09:43;12.93;;;7.70;;
33190;SDS011;19554;42.652;23.364;2022-12-28T06:12:08;10.63;;;6.63;;
33190;SDS011;19554;42.652;23.364;2022-12-28T06:14:33;10.05;;;6.85;;
33190;SDS011;19554;42.652;23.364;2022-12-28T06:16:59;10.48;;;5.68;;
33190;SDS011;19554;42.652;23.364;2022-12-28T06:19:24;9.85;;;6.32;;
33190;SDS011;19554;42.652;23.364;2022-12-28T06:21:49;10.10;;;6.40;;
33190;SDS011;19554;42.652;23.364;2022-12-28T06:24:15;9.48;;;6.75;;
33190;SDS011;19554;42.652;23.364;2022-12-28T06:26:42;11.63;;;7.10;;
33190;SDS011;19554;42.652;23.364;2022-12-28T06:29:08;12.85;;;7.35;;
33190;SDS011;19554;42.652;23.364;2022-12-28T06:31:35;15.85;;;7.85;;
33190;SDS011;19554;42.652;23.364;2022-12-28T06:34:06;11.65;;;7.20;;
33190;SDS011;19554;42.652;23.364;2022-12-28T06:36:33;10.65;;;7.07;;
33190;SDS011;19554;42.652;23.364;2022-12-28T06:39:02;16.30;;;7.68;;
33190;SDS011;19554;42.652;23.364;2022-12-28T06:41:29;10.85;;;6.60;;
33190;SDS011;19554;42.652;23.364;2022-12-28T06:43:55;12.43;;;6.90;;
33190;SDS011;19554;42.652;23.364;2022-12-28T06:46:22;11.18;;;7.38;;
33190;SDS011;19554;42.652;23.364;2022-12-28T06:48:50;12.57;;;8.35;;
33190;SDS011;19554;42.652;23.364;2022-12-28T06:51:34;14.30;;;7.60;;
33190;SDS011;19554;42.652;23.364;2022-12-28T06:54:02;11.20;;;6.63;;
33190;SDS011;19554;42.652;23.364;2022-12-28T06:56:29;17.42;;;7.93;;
33190;SDS011;19554;42.652;23.364;2022-12-28T06:58:56;11.25;;;7.05;;
33190;SDS011;19554;42.652;23.364;2022-12-28T07:01:23;14.05;;;7.47;;
33190;SDS011;19554;42.652;23.364;2022-12-28T07:03:52;16.88;;;8.52;;
33190;SDS011;19554;42.652;23.364;2022-12-28T07:06:19;14.18;;;8.20;;
33190;SDS011;19554;42.652;23.364;2022-12-28T07:08:47;18.45;;;7.80;;
33190;SDS011;19554;42.652;23.364;2022-12-28T07:11:15;16.33;;;10.73;;
33190;SDS011;19554;42.652;23.364;2022-12-28T07:13:42;17.52;;;9.98;;
33190;SDS011;19554;42.652;23.364;2022-12-28T07:16:11;17.13;;;9.60;;
33190;SDS011;19554;42.652;23.364;2022-12-28T07:18:39;14.02;;;7.75;;
33190;SDS011;19554;42.652;23.364;2022-12-28T07:21:07;16.15;;;8.50;;
33190;SDS011;19554;42.652;23.364;2022-12-28T07:23:35;15.45;;;9.40;;
33190;SDS011;19554;42.652;23.364;2022-12-28T07:26:08;17.90;;;11.20;;
33190;SDS011;19554;42.652;23.364;2022-12-28T07:28:37;13.60;;;8.98;;
33190;SDS011;19554;42.652;23.364;2022-12-28T07:31:08;16.50;;;9.60;;
33190;SDS011;19554;42.652;23.364;2022-12-28T07:33:36;12.13;;;8.25;;
33190;SDS011;19554;42.652;23.364;2022-12-28T07:36:03;14.70;;;8.88;;
33190;SDS011;19554;42.652;23.364;2022-12-28T07:38:30;13.65;;;8.57;;
33190;SDS011;19554;42.652;23.364;2022-12-28T07:40:59;14.50;;;8.90;;
33190;SDS011;19554;42.652;23.364;2022-12-28T07:43:28;16.85;;;9.70;;
33190;SDS011;19554;42.652;23.364;2022-12-28T07:46:01;16.02;;;9.93;;
33190;SDS011;19554;42.652;23.364;2022-12-28T07:48:47;19.30;;;9.98;;
33190;SDS011;19554;42.652;23.364;2022-12-28T07:53:47;14.98;;;10.07;;
33190;SDS011;19554;42.652;23.364;2022-12-28T07:56:14;18.27;;;11.50;;
33190;SDS011;19554;42.652;23.364;2022-12-28T07:58:41;17.05;;;10.77;;
33190;SDS011;19554;42.652;23.364;2022-12-28T08:03:36;20.35;;;12.63;;
33190;SDS011;19554;42.652;23.364;2022-12-28T08:06:09;21.38;;;10.95;;
33190;SDS011;19554;42.652;23.364;2022-12-28T08:08:48;19.02;;;10.75;;
33190;SDS011;19554;42.652;23.364;2022-12-28T08:11:19;16.67;;;11.35;;
33190;SDS011;19554;42.652;23.364;2022-12-28T08:13:47;23.65;;;13.77;;
33190;SDS011;19554;42.652;23.364;2022-12-28T08:16:14;20.27;;;11.90;;
33190;SDS011;19554;42.652;23.364;2022-12-28T08:18:42;21.40;;;11.70;;
33190;SDS011;19554;42.652;23.364;2022-12-28T08:21:12;23.35;;;12.82;;
33190;SDS011;19554;42.652;23.364;2022-12-28T08:23:40;28.38;;;13.25;;
33190;SDS011;19554;42.652;23.364;2022-12-28T08:26:06;22.38;;;11.60;;
33190;SDS011;19554;42.652;23.364;2022-12-28T08:28:32;35.33;;;12.45;;
33190;SDS011;19554;42.652;23.364;2022-12-28T08:31:03;21.73;;;11.88;;
33190;SDS011;19554;42.652;23.364;2022-12-28T08:33:36;19.77;;;11.57;;
33190;SDS011;19554;42.652;23.364;2022-12-28T08:36:05;18.40;;;10.77;;
33190;SDS011;19554;42.652;23.364;2022-12-28T08:38:31;18.17;;;11.00;;
33190;SDS011;19554;42.652;23.364;2022-12-28T08:40:58;17.98;;;11.80;;
33190;SDS011;19554;42.652;23.364;2022-12-28T08:43:26;17.95;;;10.65;;
33190;SDS011;19554;42.652;23.364;2022-12-28T08:45:59;20.85;;;12.75;;
33190;SDS011;19554;42.652;23.364;2022-12-28T08:48:25;25.15;;;14.52;;
33190;SDS011;19554;42.652;23.364;2022-12-28T08:50:52;26.73;;;14.90;;
33190;SDS011;19554;42.652;23.364;2022-12-28T08:53:18;21.38;;;11.65;;
33190;SDS011;19554;42.652;23.364;2022-12-28T08:55:45;19.85;;;11.63;;
33190;SDS011;19554;42.652;23.364;2022-12-28T08:58:11;17.35;;;11.50;;
33190;SDS011;19554;42.652;23.364;2022-12-28T09:00:36;18.65;;;10.95;;
33190;SDS011;19554;42.652;23.364;2022-12-28T09:03:02;19.05;;;12.15;;
33190;SDS011;19554;42.652;23.364;2022-12-28T09:05:27;22.70;;;12.40;;
33190;SDS011;19554;42.652;23.364;2022-12-28T09:07:53;20.27;;;12.32;;
33190;SDS011;19554;42.652;23.364;2022-12-28T09:10:19;28.20;;;13.13;;
33190;SDS011;19554;42.652;23.364;2022-12-28T09:12:44;26.85;;;15.82;;
33190;SDS011;19554;42.652;23.364;2022-12-28T09:15:09;25.67;;;15.95;;
33190;SDS011;19554;42.652;23.364;2022-12-28T09:17:35;22.58;;;14.40;;
33190;SDS011;19554;42.652;23.364;2022-12-28T09:20:00;29.67;;;14.23;;
33190;SDS011;19554;42.652;23.364;2022-12-28T09:22:26;22.70;;;13.82;;
33190;SDS011;19554;42.652;23.364;2022-12-28T09:24:51;24.08;;;13.68;;
33190;SDS011;19554;42.652;23.364;2022-12-28T09:27:16;19.92;;;12.85;;
33190;SDS011;19554;42.652;23.364;2022-12-28T09:29:42;20.45;;;12.80;;
33190;SDS011;19554;42.652;23.364;2022-12-28T09:32:07;23.02;;;13.00;;
33190;SDS011;19554;42.652;23.364;2022-12-28T09:34:33;17.13;;;10.88;;
33190;SDS011;19554;42.652;23.364;2022-12-28T09:37:00;16.83;;;10.30;;
33190;SDS011;19554;42.652;23.364;2022-12-28T09:39:26;13.57;;;8.73;;
33190;SDS011;19554;42.652;23.364;2022-12-28T09:41:59;12.57;;;8.73;;
33190;SDS011;19554;42.652;23.364;2022-12-28T09:44:39;15.55;;;10.18;;
33190;SDS011;19554;42.652;23.364;2022-12-28T09:49:59;16.30;;;8.52;;
33190;SDS011;19554;42.652;23.364;2022-12-28T09:52:34;12.13;;;8.23;;
33190;SDS011;19554;42.652;23.364;2022-12-28T09:55:14;16.70;;;8.57;;
33190;SDS011;19554;42.652;23.364;2022-12-28T09:57:42;13.77;;;8.68;;
33190;SDS011;19554;42.652;23.364;2022-12-28T10:00:14;20.27;;;8.95;;
33190;SDS011;19554;42.652;23.364;2022-12-28T10:02:42;15.35;;;8.48;;
33190;SDS011;19554;42.652;23.364;2022-12-28T10:05:11;15.30;;;10.02;;
33190;SDS011;19554;42.652;23.364;2022-12-28T10:07:39;14.15;;;9.13;;
33190;SDS011;19554;42.652;23.364;2022-12-28T10:10:04;15.45;;;9.65;;
33190;SDS011;19554;42.652;23.364;2022-12-28T10:12:30;24.80;;;11.80;;
33190;SDS011;19554;42.652;23.364;2022-12-28T10:14:55;16.17;;;9.77;;
33190;SDS011;19554;42.652;23.364;2022-12-28T10:17:24;16.30;;;10.57;;
33190;SDS011;19554;42.652;23.364;2022-12-28T10:19:55;16.75;;;9.93;;
33190;SDS011;19554;42.652;23.364;2022-12-28T10:22:22;14.93;;;9.80;;
33190;SDS011;19554;42.652;23.364;2022-12-28T10:24:50;22.75;;;11.60;;
33190;SDS011;19554;42.652;23.364;2022-12-28T10:27:23;18.20;;;9.77;;
33190;SDS011;19554;42.652;23.364;2022-12-28T10:29:53;16.73;;;10.60;;
33190;SDS011;19554;42.652;23.364;2022-12-28T10:32:19;17.35;;;11.27;;
33190;SDS011;19554;42.652;23.364;2022-12-28T10:37:19;21.58;;;10.02;;
33190;SDS011;19554;42.652;23.364;2022-12-28T10:39:46;17.45;;;10.45;;
33190;SDS011;19554;42.652;23.364;2022-12-28T10:42:36;14.98;;;9.82;;
33190;SDS011;19554;42.652;23.364;2022-12-28T10:45:05;17.48;;;9.75;;
33190;SDS011;19554;42.652;23.364;2022-12-28T10:47:40;15.75;;;10.68;;
33190;SDS011;19554;42.652;23.364;2022-12-28T10:50:35;22.27;;;12.48;;
33190;SDS011;19554;42.652;23.364;2022-12-28T10:53:03;26.00;;;12.00;;
33190;SDS011;19554;42.652;23.364;2022-12-28T10:55:30;18.50;;;11.43;;
33190;SDS011;19554;42.652;23.364;2022-12-28T11:00:55;21.35;;;11.35;;
33190;SDS011;19554;42.652;23.364;2022-12-28T11:03:23;17.65;;;11.82;;
33190;SDS011;19554;42.652;23.364;2022-12-28T11:06:06;19.20;;;11.65;;
33190;SDS011;19554;42.652;23.364;2022-12-28T11:08:43;18.70;;;11.68;;
33190;SDS011;19554;42.652;23.364;2022-12-28T11:11:23;20.17;;;11.73;;
33190;SDS011;19554;42.652;23.364;2022-12-28T11:13:50;20.58;;;11.63;;
33190;SDS011;19554;42.652;23.364;2022-12-28T11:16:19;20.65;;;12.25;;
33190;SDS011;19554;42.652;23.364;2022-12-28T11:18:45;21.75;;;11.23;;
33190;SDS011;19554;42.652;23.364;2022-12-28T11:21:12;18.25;;;12.13;;
33190;SDS011;19554;42.652;23.364;2022-12-28T11:23:43;17.63;;;10.90;;
33190;SDS011;19554;42.652;23.364;2022-12-28T11:26:10;18.10;;;10.93;;
33190;SDS011;19554;42.652;23.364;2022-12-28T11:28:38;19.13;;;11.57;;
33190;SDS011;19554;42.652;23.364;2022-12-28T11:31:05;21.08;;;10.80;;
33190;SDS011;19554;42.652;23.364;2022-12-28T11:36:42;22.35;;;10.82;;
33190;SDS011;19554;42.652;23.364;2022-12-28T11:42:59;22.73;;;11.57;;
33190;SDS011;19554;42.652;23.364;2022-12-28T11:45:03;19.58;;;12.30;;
33190;SDS011;19554;42.652;23.364;2022-12-28T11:47:39;29.43;;;15.80;;
33190;SDS011;19554;42.652;23.364;2022-12-28T11:53:00;35.38;;;19.50;;
33190;SDS011;19554;42.652;23.364;2022-12-28T11:56:03;35.83;;;20.27;;
33190;SDS011;19554;42.652;23.364;2022-12-28T12:11:58;39.85;;;20.40;;
33190;SDS011;19554;42.652;23.364;2022-12-28T12:17:28;37.70;;;21.40;;
33190;SDS011;19554;42.652;23.364;2022-12-28T12:20:17;39.88;;;21.45;;
33190;SDS011;19554;42.652;23.364;2022-12-28T12:22:50;35.88;;;20.38;;
33190;SDS011;19554;42.652;23.364;2022-12-28T12:25:26;34.05;;;20.42;;
33190;SDS011;19554;42.652;23.364;2022-12-28T12:28:46;35.63;;;20.25;;
33190;SDS011;19554;42.652;23.364;2022-12-28T12:31:00;38.92;;;21.38;;
33190;SDS011;19554;42.652;23.364;2022-12-28T12:33:29;38.83;;;21.58;;
33190;SDS011;19554;42.652;23.364;2022-12-28T12:52:53;28.70;;;16.38;;
33190;SDS011;19554;42.652;23.364;2022-12-28T12:55:34;36.13;;;18.05;;
33190;SDS011;19554;42.652;23.364;2022-12-28T13:03:32;30.15;;;17.88;;
33190;SDS011;19554;42.652;23.364;2022-12-28T13:06:04;27.92;;;17.90;;
33190;SDS011;19554;42.652;23.364;2022-12-28T13:08:40;30.40;;;16.70;;
33190;SDS011;19554;42.652;23.364;2022-12-28T13:11:17;30.58;;;16.27;;
33190;SDS011;19554;42.652;23.364;2022-12-28T13:13:45;28.35;;;15.38;;
33190;SDS011;19554;42.652;23.364;2022-12-28T13:16:16;34.10;;;17.00;;
33190;SDS011;19554;42.652;23.364;2022-12-28T13:19:00;34.67;;;19.77;;
33190;SDS011;19554;42.652;23.364;2022-12-28T13:21:28;29.35;;;16.80;;
33190;SDS011;19554;42.652;23.364;2022-12-28T13:26:48;29.23;;;17.50;;
33190;SDS011;19554;42.652;23.364;2022-12-28T13:29:16;29.55;;;17.27;;
33190;SDS011;19554;42.652;23.364;2022-12-28T13:31:44;30.92;;;17.15;;
33190;SDS011;19554;42.652;23.364;2022-12-28T13:34:15;37.75;;;18.85;;
33190;SDS011;19554;42.652;23.364;2022-12-28T13:36:51;34.60;;;18.08;;
33190;SDS011;19554;42.652;23.364;2022-12-28T13:39:20;32.33;;;17.90;;
33190;SDS011;19554;42.652;23.364;2022-12-28T13:41:48;27.25;;;16.75;;
33190;SDS011;19554;42.652;23.364;2022-12-28T13:49:54;29.27;;;16.83;;
33190;SDS011;19554;42.652;23.364;2022-12-28T13:52:25;28.35;;;14.88;;
33190;SDS011;19554;42.652;23.364;2022-12-28T13:54:55;25.40;;;16.45;;
33190;SDS011;19554;42.652;23.364;2022-12-28T13:57:24;27.10;;;15.90;;
33190;SDS011;19554;42.652;23.364;2022-12-28T13:59:53;24.50;;;14.35;;
33190;SDS011;19554;42.652;23.364;2022-12-28T14:02:19;23.58;;;15.25;;
33190;SDS011;19554;42.652;23.364;2022-12-28T14:04:47;30.13;;;16.42;;
33190;SDS011;19554;42.652;23.364;2022-12-28T14:07:15;26.88;;;15.15;;
33190;SDS011;19554;42.652;23.364;2022-12-28T14:09:42;27.90;;;16.05;;
33190;SDS011;19554;42.652;23.364;2022-12-28T14:12:10;26.98;;;15.70;;
33190;SDS011;19554;42.652;23.364;2022-12-28T14:14:36;26.30;;;15.60;;
33190;SDS011;19554;42.652;23.364;2022-12-28T14:17:02;27.83;;;17.10;;
33190;SDS011;19554;42.652;23.364;2022-12-28T14:19:29;28.63;;;16.73;;
33190;SDS011;19554;42.652;23.364;2022-12-28T14:21:54;24.45;;;14.80;;
33190;SDS011;19554;42.652;23.364;2022-12-28T14:24:20;25.75;;;15.63;;
33190;SDS011;19554;42.652;23.364;2022-12-28T14:26:47;32.10;;;19.35;;
33190;SDS011;19554;42.652;23.364;2022-12-28T14:29:18;32.80;;;19.60;;
33190;SDS011;19554;42.652;23.364;2022-12-28T14:31:48;33.42;;;21.00;;
33190;SDS011;19554;42.652;23.364;2022-12-28T14:34:21;31.67;;;20.70;;
33190;SDS011;19554;42.652;23.364;2022-12-28T14:36:50;42.70;;;23.02;;
33190;SDS011;19554;42.652;23.364;2022-12-28T14:39:31;32.97;;;19.08;;
33190;SDS011;19554;42.652;23.364;2022-12-28T14:41:58;33.58;;;19.80;;
33190;SDS011;19554;42.652;23.364;2022-12-28T14:44:26;27.65;;;16.50;;
33190;SDS011;19554;42.652;23.364;2022-12-28T14:46:52;24.63;;;16.65;;
33190;SDS011;19554;42.652;23.364;2022-12-28T14:51:53;47.10;;;24.08;;
33190;SDS011;19554;42.652;23.364;2022-12-28T14:54:25;48.42;;;27.00;;
33190;SDS011;19554;42.652;23.364;2022-12-28T14:59:19;53.72;;;29.63;;
33190;SDS011;19554;42.652;23.364;2022-12-28T15:01:49;53.58;;;31.95;;
33190;SDS011;19554;42.652;23.364;2022-12-28T15:04:24;51.90;;;29.30;;
33190;SDS011;19554;42.652;23.364;2022-12-28T15:06:51;48.28;;;29.13;;
33190;SDS011;19554;42.652;23.364;2022-12-28T15:09:17;55.55;;;27.52;;
33190;SDS011;19554;42.652;23.364;2022-12-28T15:11:43;57.95;;;33.67;;
33190;SDS011;19554;42.652;23.364;2022-12-28T15:14:11;50.15;;;29.63;;
33190;SDS011;19554;42.652;23.364;2022-12-28T15:16:37;45.83;;;28.08;;
33190;SDS011;19554;42.652;23.364;2022-12-28T15:19:02;47.85;;;28.33;;
33190;SDS011;19554;42.652;23.364;2022-12-28T15:21:28;44.38;;;27.48;;
33190;SDS011;19554;42.652;23.364;2022-12-28T15:23:53;48.47;;;29.77;;
33190;SDS011;19554;42.652;23.364;2022-12-28T15:26:20;58.55;;;35.08;;
33190;SDS011;19554;42.652;23.364;2022-12-28T15:28:47;55.35;;;32.38;;
33190;SDS011;19554;42.652;23.364;2022-12-28T15:31:17;54.70;;;29.98;;
33190;SDS011;19554;42.652;23.364;2022-12-28T15:33:43;60.80;;;35.47;;
33190;SDS011;19554;42.652;23.364;2022-12-28T15:36:11;53.30;;;30.50;;
33190;SDS011;19554;42.652;23.364;2022-12-28T15:38:37;52.40;;;29.98;;
33190;SDS011;19554;42.652;23.364;2022-12-28T15:41:03;53.60;;;30.00;;
33190;SDS011;19554;42.652;23.364;2022-12-28T15:43:48;55.97;;;29.77;;
33190;SDS011;19554;42.652;23.364;2022-12-28T15:46:14;57.63;;;28.77;;
33190;SDS011;19554;42.652;23.364;2022-12-28T15:48:39;56.70;;;30.48;;
33190;SDS011;19554;42.652;23.364;2022-12-28T15:51:04;47.75;;;28.30;;
33190;SDS011;19554;42.652;23.364;2022-12-28T15:53:30;53.67;;;31.52;;
33190;SDS011;19554;42.652;23.364;2022-12-28T15:55:58;51.88;;;28.95;;
33190;SDS011;19554;42.652;23.364;2022-12-28T15:58:24;50.97;;;29.13;;
33190;SDS011;19554;42.652;23.364;2022-12-28T16:00:50;48.00;;;27.77;;
33190;SDS011;19554;42.652;23.364;2022-12-28T16:03:16;51.33;;;27.27;;
33190;SDS011;19554;42.652;23.364;2022-12-28T16:05:41;47.17;;;26.10;;
33190;SDS011;19554;42.652;23.364;2022-12-28T16:08:06;57.92;;;30.00;;
33190;SDS011;19554;42.652;23.364;2022-12-28T16:10:32;61.58;;;31.92;;
33190;SDS011;19554;42.652;23.364;2022-12-28T16:12:57;55.85;;;31.23;;
33190;SDS011;19554;42.652;23.364;2022-12-28T16:15:22;50.67;;;31.23;;